createdAt,value
2018-04-09T00:02:34.202Z,12.77
2018-04-09T00:17:33.869Z,12.73
2018-04-09T00:32:34.627Z,12.72
2018-04-09T00:47:34.225Z,12.68
2018-04-09T01:02:34.434Z,12.62
2018-04-09T01:17:36.162Z,12.41
2018-04-09T01:32:34.761Z,12.27
2018-04-09T01:47:35.170Z,12.05
2018-04-09T02:02:34.672Z,11.87
2018-04-09T02:17:34.417Z,11.78
2018-04-09T02:32:36.518Z,11.65
2018-04-09T02:47:34.269Z,11.51
2018-04-09T03:02:37.006Z,11.34
2018-04-09T03:17:35.250Z,11.23
2018-04-09T03:32:34.605Z,11.04
2018-04-09T03:47:34.610Z,10.93
2018-04-09T04:02:34.170Z,10.89
2018-04-09T04:17:46.079Z,12.50
2018-04-09T04:32:36.608Z,15.88
2018-04-09T04:47:34.442Z,18.66
2018-04-09T05:02:34.770Z,20.99
2018-04-09T05:17:34.365Z,23.10
2018-04-09T05:32:34.402Z,24.80
2018-04-09T05:47:35.110Z,25.98
2018-04-09T06:02:34.642Z,27.07
2018-04-09T06:17:34.582Z,27.70
2018-04-09T06:32:34.597Z,26.60
2018-04-09T06:47:37.842Z,25.11
2018-04-09T07:02:35.382Z,25.62
2018-04-09T07:17:34.842Z,23.74
2018-04-09T07:32:35.278Z,23.69
2018-04-09T07:47:33.708Z,24.85
2018-04-09T08:02:34.150Z,25.88
2018-04-09T08:17:34.111Z,27.29
2018-04-09T08:32:35.696Z,27.79
2018-04-09T08:47:34.928Z,28.20
2018-04-09T09:02:39.458Z,29.10
2018-04-09T09:17:37.976Z,30.16
2018-04-09T09:32:37.419Z,30.33
2018-04-09T09:47:36.753Z,31.03
2018-04-09T10:02:35.134Z,29.97
2018-04-09T10:17:37.182Z,29.68
2018-04-09T10:32:35.068Z,30.27
2018-04-09T10:47:37.450Z,29.50
2018-04-09T11:02:35.971Z,29.44
2018-04-09T11:17:36.835Z,29.23
2018-04-09T11:32:37.144Z,29.07
2018-04-09T11:47:38.041Z,28.09
2018-04-09T12:02:37.779Z,27.47
2018-04-09T12:17:34.948Z,27.11
2018-04-09T12:32:35.452Z,26.84
2018-04-09T12:47:36.260Z,26.77
2018-04-09T13:02:35.980Z,26.05
2018-04-09T13:17:35.204Z,25.45
2018-04-09T13:32:35.769Z,25.30
2018-04-09T13:47:38.207Z,24.46
2018-04-09T14:02:34.649Z,24.00
2018-04-09T14:17:35.056Z,23.73
2018-04-09T14:33:41.381Z,23.48
2018-04-09T14:36:08.910Z,23.66
2018-04-09T14:38:36.412Z,23.78
2018-04-09T14:41:03.946Z,23.87
2018-04-09T14:43:31.468Z,23.95
2018-04-09T14:45:59.000Z,24.04
2018-04-09T15:02:36.733Z,23.44
2018-04-09T15:17:35.318Z,23.18
2018-04-09T15:32:35.194Z,22.85
2018-04-09T15:47:34.324Z,22.47
2018-04-09T16:02:39.550Z,22.05
2018-04-09T16:17:54.303Z,21.57
2018-04-09T16:32:35.068Z,21.14
2018-04-09T16:47:34.924Z,20.70
2018-04-09T17:02:39.878Z,20.33
2018-04-09T17:17:35.236Z,19.96
2018-04-09T17:32:34.638Z,19.65
2018-04-09T17:47:34.592Z,19.16
2018-04-09T18:02:36.090Z,18.85
2018-04-09T18:17:34.329Z,18.62
2018-04-09T18:32:36.744Z,18.64
2018-04-09T18:47:36.225Z,18.29
2018-04-09T19:02:39.599Z,17.80
2018-04-09T19:17:34.955Z,17.34
2018-04-09T19:32:34.838Z,16.89
2018-04-09T19:47:33.893Z,16.65
2018-04-09T20:02:39.581Z,16.39
2018-04-09T20:17:36.136Z,16.25
2018-04-09T20:32:36.354Z,16.32
2018-04-09T20:47:34.428Z,16.42
2018-04-09T21:02:34.572Z,16.35
2018-04-09T21:17:34.893Z,16.24
2018-04-09T21:32:34.340Z,16.10
2018-04-09T21:47:35.239Z,16.03
2018-04-09T22:02:36.312Z,15.88
2018-04-09T22:17:34.999Z,15.67
2018-04-09T22:32:37.908Z,15.50
2018-04-09T22:47:35.399Z,15.29
2018-04-09T23:02:35.425Z,15.16
2018-04-09T23:17:36.783Z,15.01
2018-04-09T23:32:37.800Z,14.80
2018-04-09T23:47:35.320Z,14.61
